createdAt,value
2019-01-27T00:02:03.178Z,5.30
2019-01-27T00:04:51.460Z,5.30
2019-01-27T00:07:39.649Z,5.30
2019-01-27T00:10:27.885Z,5.30
2019-01-27T00:13:16.109Z,5.30
2019-01-27T00:16:04.541Z,5.30
2019-01-27T00:18:52.916Z,5.30
2019-01-27T00:21:41.162Z,5.30
2019-01-27T00:24:10.240Z,5.30
2019-01-27T00:26:58.425Z,5.30
2019-01-27T00:29:39.304Z,5.30
2019-01-27T00:32:19.786Z,5.40
2019-01-27T00:35:01.057Z,5.40
2019-01-27T00:37:41.969Z,5.40
2019-01-27T00:40:11.879Z,5.40
2019-01-27T00:43:00.093Z,5.40
2019-01-27T00:48:55.509Z,5.40
2019-01-27T00:52:02.768Z,5.40
2019-01-27T00:54:50.946Z,5.40
2019-01-27T00:57:39.154Z,5.40
2019-01-27T01:00:27.308Z,5.40
2019-01-27T01:06:02.060Z,5.50
2019-01-27T01:08:42.723Z,5.50
2019-01-27T01:11:26.720Z,5.50
2019-01-27T01:13:55.783Z,5.60
2019-01-27T01:16:43.948Z,5.50
2019-01-27T01:19:32.117Z,5.50
2019-01-27T01:22:20.320Z,5.50
2019-01-27T01:25:11.857Z,5.50
2019-01-27T01:28:00.138Z,5.50
2019-01-27T01:33:55.583Z,5.50
2019-01-27T01:36:43.937Z,5.50
2019-01-27T01:39:32.166Z,5.50
2019-01-27T01:42:20.343Z,5.50
2019-01-27T01:45:31.745Z,5.50
2019-01-27T01:48:19.917Z,5.50
2019-01-27T01:51:08.144Z,5.50
2019-01-27T01:57:03.590Z,5.60
2019-01-27T01:59:51.772Z,5.60
2019-01-27T02:02:39.980Z,5.60
2019-01-27T02:05:28.118Z,5.60
2019-01-27T02:08:08.785Z,5.60
2019-01-27T02:10:50.105Z,5.70
2019-01-27T02:13:30.857Z,5.60
2019-01-27T02:16:11.300Z,5.70
2019-01-27T02:18:52.027Z,5.70
2019-01-27T02:21:21.088Z,5.70
2019-01-27T02:24:09.240Z,5.70
2019-01-27T02:26:38.306Z,5.70
2019-01-27T02:29:26.468Z,5.60
2019-01-27T02:32:14.641Z,5.60
2019-01-27T02:35:02.803Z,5.60
2019-01-27T02:37:51.050Z,5.50
2019-01-27T02:40:39.220Z,5.50
2019-01-27T02:43:27.385Z,5.40
2019-01-27T02:46:15.578Z,5.40
2019-01-27T02:49:04.153Z,5.40
2019-01-27T02:51:52.319Z,5.40
2019-01-27T02:54:21.381Z,5.40
2019-01-27T02:57:09.517Z,5.40
2019-01-27T02:59:57.696Z,5.30
2019-01-27T03:02:45.921Z,5.30
2019-01-27T03:08:24.986Z,5.40
2019-01-27T03:11:05.852Z,5.40
2019-01-27T03:13:46.761Z,5.30
2019-01-27T03:16:27.553Z,5.30
2019-01-27T03:19:08.704Z,5.30
2019-01-27T03:21:49.658Z,5.30
2019-01-27T03:24:30.655Z,5.40
2019-01-27T03:27:11.251Z,5.40
2019-01-27T03:29:52.515Z,5.30
2019-01-27T03:32:33.193Z,5.30
2019-01-27T03:35:13.645Z,5.30
2019-01-27T03:37:54.404Z,5.30
2019-01-27T03:40:34.785Z,5.30
2019-01-27T03:43:15.781Z,5.30
2019-01-27T03:45:56.505Z,5.30
2019-01-27T03:48:37.578Z,5.30
2019-01-27T03:51:18.227Z,5.30
2019-01-27T03:53:58.808Z,5.30
2019-01-27T03:56:39.197Z,5.30
2019-01-27T03:59:20.225Z,5.30
2019-01-27T04:02:00.840Z,5.30
2019-01-27T04:04:41.340Z,5.30
2019-01-27T04:07:22.397Z,5.20
2019-01-27T04:10:03.804Z,5.30
2019-01-27T04:12:44.706Z,5.30
2019-01-27T04:15:25.750Z,5.20
2019-01-27T04:18:06.667Z,5.20
2019-01-27T04:20:47.069Z,5.20
2019-01-27T04:23:27.892Z,5.20
2019-01-27T04:26:08.730Z,5.20
2019-01-27T04:28:49.479Z,5.20
2019-01-27T04:31:30.508Z,5.20
2019-01-27T04:34:11.246Z,5.20
2019-01-27T04:36:51.839Z,5.20
2019-01-27T04:39:33.180Z,5.20
2019-01-27T04:42:13.805Z,5.20
2019-01-27T04:44:54.855Z,5.20
2019-01-27T04:47:35.956Z,5.20
2019-01-27T04:56:13.877Z,5.30
2019-01-27T04:58:54.646Z,5.20
2019-01-27T05:01:35.613Z,5.20
2019-01-27T05:07:24.626Z,5.20
2019-01-27T05:10:12.785Z,5.20
2019-01-27T05:13:00.866Z,5.20
2019-01-27T05:15:49.040Z,5.20
2019-01-27T05:21:25.576Z,5.30
2019-01-27T05:23:54.547Z,5.20
2019-01-27T05:26:42.716Z,5.20
2019-01-27T05:29:11.728Z,5.30
2019-01-27T05:31:40.805Z,5.20
2019-01-27T05:34:10.117Z,5.30
2019-01-27T05:36:39.172Z,5.20
2019-01-27T05:39:08.733Z,5.20
2019-01-27T05:41:56.912Z,5.20
2019-01-27T05:44:45.085Z,5.20
2019-01-27T05:47:33.333Z,5.20
2019-01-27T05:50:21.615Z,5.20
2019-01-27T05:53:09.778Z,5.10
2019-01-27T05:55:38.752Z,5.10
2019-01-27T06:01:34.183Z,5.20
2019-01-27T06:04:22.419Z,5.20
2019-01-27T06:07:10.595Z,5.20
2019-01-27T06:09:58.761Z,5.20
2019-01-27T06:12:46.929Z,5.30
2019-01-27T06:15:35.123Z,5.30
2019-01-27T06:18:23.201Z,5.20
2019-01-27T06:21:11.384Z,5.20
2019-01-27T06:27:06.838Z,5.20
2019-01-27T06:29:55.035Z,5.20
2019-01-27T06:35:33.689Z,5.20
2019-01-27T06:38:14.451Z,5.20
2019-01-27T06:40:55.475Z,5.20
2019-01-27T06:43:35.895Z,5.20
2019-01-27T06:46:16.757Z,5.20
2019-01-27T06:48:57.587Z,5.20
2019-01-27T06:51:38.603Z,5.20
2019-01-27T06:54:19.471Z,5.10
2019-01-27T06:57:00.140Z,5.10
2019-01-27T06:59:59.903Z,5.10
2019-01-27T07:02:49.037Z,5.10
2019-01-27T07:05:48.576Z,5.10
2019-01-27T07:08:48.270Z,5.10
2019-01-27T07:11:50.822Z,5.10
2019-01-27T07:14:42.455Z,5.20
2019-01-27T07:20:47.162Z,5.10
2019-01-27T07:23:50.290Z,5.20
2019-01-27T07:26:52.843Z,5.20
2019-01-27T07:29:52.461Z,5.20
2019-01-27T07:32:46.369Z,5.20
2019-01-27T07:35:46.619Z,5.20
2019-01-27T07:38:46.517Z,5.20
2019-01-27T07:41:47.081Z,5.20
2019-01-27T07:44:47.563Z,5.20
2019-01-27T07:47:50.491Z,5.20
2019-01-27T07:50:50.385Z,5.20
2019-01-27T07:53:49.851Z,5.30
2019-01-27T07:56:51.471Z,5.40
2019-01-27T07:59:51.660Z,5.40
2019-01-27T08:02:39.482Z,5.50
2019-01-27T08:05:39.435Z,5.50
2019-01-27T08:08:39.675Z,5.60
2019-01-27T08:11:31.144Z,5.60
2019-01-27T08:14:36.947Z,5.70
2019-01-27T08:17:33.997Z,5.80
2019-01-27T08:20:33.877Z,5.80
2019-01-27T08:23:36.632Z,5.70
2019-01-27T08:26:36.317Z,5.70
2019-01-27T08:29:36.587Z,5.70
2019-01-27T08:32:37.962Z,5.70
2019-01-27T08:35:45.413Z,5.80
2019-01-27T08:38:33.444Z,5.80
2019-01-27T08:41:40.664Z,5.80
2019-01-27T08:44:47.970Z,5.90
2019-01-27T08:47:36.171Z,5.90
2019-01-27T08:56:25.241Z,5.90
2019-01-27T08:59:13.431Z,6.00
2019-01-27T09:02:20.620Z,6.00
2019-01-27T09:05:28.708Z,6.00
2019-01-27T09:08:36.099Z,6.00
2019-01-27T09:11:36.247Z,6.10
2019-01-27T09:14:30.424Z,6.10
2019-01-27T09:17:30.679Z,6.10
2019-01-27T09:20:18.791Z,6.10
2019-01-27T09:23:25.996Z,6.20
2019-01-27T09:26:33.400Z,6.20
2019-01-27T09:29:29.723Z,6.20
2019-01-27T09:32:30.062Z,6.30
2019-01-27T09:35:29.526Z,6.30
2019-01-27T09:38:35.912Z,6.40
2019-01-27T09:41:26.087Z,6.50
2019-01-27T09:44:26.187Z,6.50
2019-01-27T09:47:21.802Z,6.50
2019-01-27T09:50:10.165Z,6.60
2019-01-27T09:53:10.364Z,6.60
2019-01-27T09:55:57.118Z,6.70
2019-01-27T09:58:45.122Z,6.70
2019-01-27T10:01:45.413Z,6.70
2019-01-27T10:04:33.473Z,6.70
2019-01-27T10:07:40.718Z,6.70
2019-01-27T10:10:38.825Z,6.70
2019-01-27T10:13:46.209Z,6.80
2019-01-27T10:16:50.157Z,6.80
2019-01-27T10:19:57.388Z,6.80
2019-01-27T10:22:45.521Z,6.90
2019-01-27T10:25:52.745Z,7.00
2019-01-27T10:28:59.960Z,7.00
2019-01-27T10:32:07.383Z,7.10
2019-01-27T10:35:03.072Z,7.20
2019-01-27T10:38:03.399Z,7.30
2019-01-27T10:41:02.899Z,7.30
2019-01-27T10:44:03.163Z,7.40
2019-01-27T10:47:02.845Z,7.40
2019-01-27T10:50:02.468Z,7.50
2019-01-27T10:53:02.657Z,7.60
2019-01-27T10:59:11.059Z,7.60
2019-01-27T11:02:18.269Z,7.70
2019-01-27T11:05:25.809Z,7.70
2019-01-27T11:08:33.077Z,7.70
2019-01-27T11:11:40.317Z,7.70
2019-01-27T11:14:36.868Z,7.70
2019-01-27T11:17:44.073Z,7.70
2019-01-27T11:20:51.296Z,7.70
2019-01-27T11:23:39.389Z,7.70
2019-01-27T11:26:28.146Z,7.60
2019-01-27T11:29:22.037Z,7.60
2019-01-27T11:32:29.251Z,7.60
2019-01-27T11:35:29.558Z,7.50
2019-01-27T11:38:31.807Z,7.50
2019-01-27T11:41:34.533Z,7.50
2019-01-27T11:44:33.927Z,7.50
2019-01-27T11:47:36.413Z,7.40
2019-01-27T11:50:36.394Z,7.40
2019-01-27T11:53:16.984Z,7.40
2019-01-27T11:55:57.955Z,7.40
2019-01-27T11:58:38.771Z,7.30
2019-01-27T12:01:19.711Z,7.30
2019-01-27T12:04:00.236Z,7.20
2019-01-27T12:06:40.651Z,7.10
2019-01-27T12:09:21.665Z,7.00
2019-01-27T12:12:02.858Z,7.00
2019-01-27T12:14:43.449Z,7.00
2019-01-27T12:17:12.520Z,7.00
2019-01-27T12:20:00.699Z,7.00
2019-01-27T12:25:44.557Z,6.90
2019-01-27T12:28:32.756Z,6.90
2019-01-27T12:31:20.983Z,6.90
2019-01-27T12:34:01.716Z,6.90
2019-01-27T12:36:42.772Z,6.90
2019-01-27T12:39:23.457Z,6.90
2019-01-27T12:44:46.446Z,6.90
2019-01-27T12:50:09.425Z,6.90
2019-01-27T12:55:45.923Z,6.80
2019-01-27T12:58:34.077Z,6.80
2019-01-27T13:01:07.159Z,6.80
2019-01-27T13:03:55.493Z,6.90
2019-01-27T13:06:43.679Z,6.90
2019-01-27T13:09:12.657Z,6.90
2019-01-27T13:11:41.721Z,6.90
2019-01-27T13:14:10.939Z,6.90
2019-01-27T13:16:39.936Z,6.90
2019-01-27T13:19:09.135Z,6.90
2019-01-27T13:22:14.845Z,6.90
2019-01-27T13:25:03.343Z,6.90
2019-01-27T13:27:51.586Z,6.80
2019-01-27T13:30:39.774Z,6.80
2019-01-27T13:33:27.975Z,6.70
2019-01-27T13:36:16.152Z,6.70
2019-01-27T13:48:10.552Z,6.60
2019-01-27T13:50:58.869Z,6.60
2019-01-27T13:53:47.001Z,6.60
2019-01-27T13:56:35.195Z,6.50
2019-01-27T13:59:23.367Z,6.50
2019-01-27T14:05:18.960Z,6.40
2019-01-27T14:11:14.490Z,6.30
2019-01-27T14:13:54.843Z,6.30
2019-01-27T14:16:35.406Z,6.20
2019-01-27T14:19:16.307Z,6.20
2019-01-27T14:21:57.047Z,6.10
2019-01-27T14:24:38.062Z,6.10
2019-01-27T14:30:31.728Z,6.10
2019-01-27T14:33:12.434Z,6.10
2019-01-27T14:39:06.484Z,6.00
2019-01-27T14:41:47.559Z,6.00
2019-01-27T14:44:16.747Z,6.00
2019-01-27T14:50:13.409Z,5.90
2019-01-27T14:53:01.749Z,5.90
2019-01-27T14:56:04.129Z,5.90
2019-01-27T14:58:51.713Z,5.80
2019-01-27T15:01:30.498Z,5.80
2019-01-27T15:04:18.724Z,5.80
2019-01-27T15:10:01.176Z,5.80
2019-01-27T15:12:49.469Z,5.80
2019-01-27T15:15:30.769Z,5.80
2019-01-27T15:17:59.895Z,5.80
2019-01-27T15:20:52.981Z,5.80
2019-01-27T15:23:41.264Z,5.70
2019-01-27T15:26:29.582Z,5.70
2019-01-27T15:29:18.789Z,5.70
2019-01-27T15:32:06.968Z,5.70
2019-01-27T15:34:55.307Z,5.70
2019-01-27T15:37:34.849Z,5.60
2019-01-27T15:40:23.137Z,5.60
2019-01-27T15:43:12.057Z,5.60
2019-01-27T15:46:00.323Z,5.50
2019-01-27T15:48:29.542Z,5.50
2019-01-27T15:51:17.797Z,5.50
2019-01-27T15:54:06.171Z,5.50
2019-01-27T15:56:55.446Z,5.50
2019-01-27T15:59:43.969Z,5.50
2019-01-27T16:02:32.371Z,5.50
2019-01-27T16:08:28.372Z,5.40
2019-01-27T16:10:57.430Z,5.40
2019-01-27T16:13:26.598Z,5.40
2019-01-27T16:15:55.953Z,5.40
2019-01-27T16:18:25.078Z,5.40
2019-01-27T16:21:13.496Z,5.40
2019-01-27T16:27:01.688Z,5.50
2019-01-27T16:30:09.134Z,5.50
2019-01-27T16:36:12.290Z,5.50
2019-01-27T16:38:41.535Z,5.50
2019-01-27T16:41:10.646Z,5.50
2019-01-27T16:47:06.137Z,5.50
2019-01-27T16:53:01.614Z,5.50
2019-01-27T16:55:50.384Z,5.40
2019-01-27T16:58:38.626Z,5.40
2019-01-27T17:07:28.198Z,5.40
2019-01-27T17:10:17.013Z,5.40
2019-01-27T17:16:13.212Z,5.40
2019-01-27T17:22:08.921Z,5.20
2019-01-27T17:27:51.398Z,5.10
2019-01-27T17:30:39.672Z,5.10
2019-01-27T17:33:27.872Z,5.00
2019-01-27T17:36:16.054Z,5.00
2019-01-27T17:38:56.521Z,4.90
2019-01-27T17:41:37.217Z,4.90
2019-01-27T17:44:18.048Z,4.90
2019-01-27T17:46:47.244Z,4.80
2019-01-27T17:49:35.699Z,4.80
2019-01-27T17:52:23.915Z,4.80
2019-01-27T17:58:45.397Z,4.70
2019-01-27T18:01:52.711Z,4.70
2019-01-27T18:04:59.969Z,4.60
2019-01-27T18:08:07.211Z,4.60
2019-01-27T18:11:00.978Z,4.50
2019-01-27T18:14:08.301Z,4.50
2019-01-27T18:16:56.457Z,4.50
2019-01-27T18:19:44.653Z,4.50
2019-01-27T18:22:32.815Z,4.40
2019-01-27T18:25:21.018Z,4.40
2019-01-27T18:28:09.374Z,4.30
2019-01-27T18:36:26.824Z,4.30
2019-01-27T18:39:07.795Z,4.30
2019-01-27T18:41:37.072Z,4.30
2019-01-27T18:44:26.858Z,4.20
2019-01-27T18:47:15.138Z,4.20
2019-01-27T18:53:13.326Z,4.20
2019-01-27T18:56:01.511Z,4.20
2019-01-27T18:59:08.725Z,4.20
2019-01-27T19:02:15.981Z,4.20
2019-01-27T19:05:04.090Z,4.20
2019-01-27T19:07:52.255Z,4.20
2019-01-27T19:10:59.757Z,4.20
2019-01-27T19:14:06.965Z,4.10
2019-01-27T19:16:44.448Z,4.10
2019-01-27T19:22:53.478Z,4.20
2019-01-27T19:25:32.638Z,4.20
2019-01-27T19:28:39.885Z,4.20
2019-01-27T19:31:47.250Z,4.20
2019-01-27T19:34:44.157Z,4.20
2019-01-27T19:40:46.466Z,4.10
2019-01-27T19:43:35.526Z,4.10
2019-01-27T19:46:24.178Z,4.10
2019-01-27T19:49:40.385Z,4.10
2019-01-27T19:52:40.392Z,4.10
2019-01-27T19:58:55.473Z,4.00
2019-01-27T20:01:43.719Z,4.00
2019-01-27T20:04:31.959Z,4.00
2019-01-27T20:07:20.261Z,4.00
2019-01-27T20:10:09.304Z,4.00
2019-01-27T20:12:57.693Z,4.00
2019-01-27T20:19:20.795Z,4.00
2019-01-27T20:22:28.555Z,4.00
2019-01-27T20:25:35.953Z,3.90
2019-01-27T20:31:37.929Z,3.90
2019-01-27T20:34:38.094Z,3.80
2019-01-27T20:37:41.336Z,3.80
2019-01-27T20:40:49.576Z,3.80
2019-01-27T20:43:57.009Z,3.70
2019-01-27T20:47:04.303Z,3.70
2019-01-27T20:49:52.725Z,3.70
2019-01-27T20:52:41.239Z,3.70
2019-01-27T20:55:30.415Z,3.60
2019-01-27T20:58:18.687Z,3.60
2019-01-27T21:01:07.146Z,3.50
2019-01-27T21:03:55.726Z,3.50
2019-01-27T21:06:44.038Z,3.60
2019-01-27T21:09:42.566Z,3.60
2019-01-27T21:12:49.893Z,3.60
2019-01-27T21:15:47.833Z,3.70
2019-01-27T21:18:41.711Z,3.70
2019-01-27T21:21:29.885Z,3.70
2019-01-27T21:23:59.615Z,3.70
2019-01-27T21:26:28.775Z,3.70
2019-01-27T21:28:57.826Z,3.70
2019-01-27T21:31:26.897Z,3.70
2019-01-27T21:34:15.499Z,3.60
2019-01-27T21:37:03.781Z,3.60
2019-01-27T21:39:44.412Z,3.60
2019-01-27T21:42:25.308Z,3.50
2019-01-27T21:45:06.606Z,3.50
2019-01-27T21:47:47.927Z,3.50
2019-01-27T21:50:29.442Z,3.50
2019-01-27T21:52:58.545Z,3.40
2019-01-27T21:55:46.740Z,3.40
2019-01-27T21:58:35.076Z,3.30
2019-01-27T22:01:25.533Z,3.40
2019-01-27T22:04:13.329Z,3.30
2019-01-27T22:07:01.626Z,3.30
2019-01-27T22:09:30.779Z,3.30
2019-01-27T22:12:19.026Z,3.30
2019-01-27T22:15:07.331Z,3.30
2019-01-27T22:17:55.627Z,3.30
2019-01-27T22:23:19.005Z,3.30
2019-01-27T22:28:36.919Z,3.30
2019-01-27T22:31:25.167Z,3.30
2019-01-27T22:34:13.452Z,3.30
2019-01-27T22:37:01.643Z,3.30
2019-01-27T22:39:42.759Z,3.30
2019-01-27T22:42:23.518Z,3.30
2019-01-27T22:45:04.341Z,3.30
2019-01-27T22:47:45.260Z,3.30
2019-01-27T22:50:26.193Z,3.30
2019-01-27T22:53:09.803Z,3.30
2019-01-27T22:55:45.386Z,3.20
2019-01-27T22:58:33.548Z,3.20
2019-01-27T23:01:21.828Z,3.20
2019-01-27T23:04:10.049Z,3.20
2019-01-27T23:06:58.265Z,3.20
2019-01-27T23:09:46.436Z,3.20
2019-01-27T23:12:34.642Z,3.20
2019-01-27T23:15:22.859Z,3.20
2019-01-27T23:18:11.101Z,3.30
2019-01-27T23:20:40.200Z,3.30
2019-01-27T23:23:28.392Z,3.30
2019-01-27T23:26:16.584Z,3.30
2019-01-27T23:29:04.928Z,3.40
2019-01-27T23:31:53.151Z,3.40
2019-01-27T23:34:41.351Z,3.40
2019-01-27T23:37:29.574Z,3.40
2019-01-27T23:40:10.036Z,3.40
2019-01-27T23:42:39.247Z,3.40
2019-01-27T23:45:27.398Z,3.40
2019-01-27T23:48:15.643Z,3.40
2019-01-27T23:51:03.877Z,3.40
2019-01-27T23:56:59.340Z,3.40
2019-01-27T23:59:47.535Z,3.40
